OICC

Details ICAO OICC (KSH)
Name SHAHID ASHRAFI ESFAHANI
Region Iran
Timezone Asia/Tehran (UTC+3.5)
Plans Departing 5
Arriving 10
Stats Elevation 4,301 ft / 1,311 m (AMSL)
Location 34.345852° 47.158132°
Runways 1
Magnetic Variation 4.665° E
Sunrise 2017-12-14 03:50:58 UTC / 2017-12-14 07:20:58 Local
Sunset 2017-12-14 13:43:48 UTC / 2017-12-14 17:13:48 Local
Advertisement - Login to hide

Runways

ID Width Length Bearing (true) Bearing (mag) Surface Threshold Offset Overrun Length
11 148 ft / 45 m 11,205 ft / 3,415 m 116.09° 111.42° Asphalt 1,437 ft / 438 m 0 ft / 0 m
29 148 ft / 45 m 11,205 ft / 3,415 m 296.11° 291.44° Asphalt 0 ft / 0 m 0 ft / 0 m

Approach Navaids

Runway Type Ident Frequency Range Bearing (true) Bearing (mag) Slope Elevation
29 Localiser IKMS 111.10 MHz 18 nm / 33 km 296.10° 291.43° - 4,307 ft / 1,313 m (AMSL)
29 Glidescope IKMS 111.10 MHz 10 nm / 19 km 296.10° 291.43° 3.00° 4,307 ft / 1,313 m (AMSL)
29 DME IKMS 111.10 MHz 18 nm / 33 km - - - 4,297 ft / 1,310 m (AMSL)

Map

Weather


0- 5 10 15 20 25 30 35+ Temperature / ° C

Clouds and Precipitation
Forecast for 2017-12-14 06:00 UTC. Updated an hour ago

Ground ~20,000 ft ~40,000 ft Winds

METAR

OICC 140630Z 00000KT 9999 FEW045 04/M04 Q1021 A3017 NOSIG

TAF

Not found

Frequencies

Recorded 126.80 MHz KERMANSHAH INFO
Tower 121.90 MHz KERMANSHAH TWR
Tower 122.45 MHz KERMANSHAH TWR
Warning: Do not use this data for real-world aviation or navigation. No guarantee of current accuracy is given.